CZN617 ZGGG-VHHX
Flight info
| Callsign | CZN617 |
|---|---|
| Flight time | 0h 26m |
| Altitude | 14800 |
| Route | SAREX9 SAREX W6 NLG W18 TAMOT |
| Aircraft | A320/M-SDE3FGHIRWY/LB1 |
Departure
| Time | 2026-05-06 22:21 |
|---|---|
| Airport | Guangzhou Baiyun International Airport (ZGGG) |
Arrival
| Time | 2026-05-06 22:48 |
|---|---|
| Airport | Hong Kong International Airport Kai Tak (VHHX) |
| Time | Latitude | Longitude | Altitude | Speed | Heading |
|---|---|---|---|---|---|
| 2026-05-06 21:56 | 23.38521 | 113.30144 | 53 ft | 0 kts | 197° |
| 2026-05-06 22:10 | 23.38501 | 113.30143 | 53 ft | 1 kts | 165° |
| 2026-05-06 22:11 | 23.38501 | 113.30150 | 53 ft | 3 kts | 102° |
| 2026-05-06 22:11 | 23.38510 | 113.30192 | 53 ft | 10 kts | 97° |
| 2026-05-06 22:11 | 23.38458 | 113.30250 | 53 ft | 12 kts | 144° |
| 2026-05-06 22:11 | 23.38384 | 113.30307 | 53 ft | 14 kts | 145° |
| 2026-05-06 22:12 | 23.38321 | 113.30340 | 53 ft | 10 kts | 178° |
| 2026-05-06 22:12 | 23.38299 | 113.30336 | 53 ft | 0 kts | 191° |
| 2026-05-06 22:13 | 23.38293 | 113.30335 | 53 ft | 6 kts | 191° |
| 2026-05-06 22:13 | 23.38215 | 113.30312 | 53 ft | 13 kts | 195° |
| 2026-05-06 22:14 | 23.38118 | 113.30283 | 53 ft | 16 kts | 193° |
| 2026-05-06 22:14 | 23.38057 | 113.30268 | 53 ft | 0 kts | 194° |
| 2026-05-06 22:15 | 23.38040 | 113.30263 | 53 ft | 11 kts | 194° |
| 2026-05-06 22:16 | 23.37944 | 113.30235 | 53 ft | 16 kts | 195° |
| 2026-05-06 22:16 | 23.37846 | 113.30251 | 52 ft | 15 kts | 115° |
| 2026-05-06 22:16 | 23.37822 | 113.30372 | 53 ft | 17 kts | 108° |
| 2026-05-06 22:16 | 23.37785 | 113.30508 | 52 ft | 20 kts | 104° |
| 2026-05-06 22:17 | 23.37700 | 113.30575 | 54 ft | 16 kts | 191° |
| 2026-05-06 22:17 | 23.37593 | 113.30586 | 55 ft | 17 kts | 151° |
| 2026-05-06 22:17 | 23.37548 | 113.30688 | 53 ft | 10 kts | 98° |
| 2026-05-06 22:17 | 23.37589 | 113.30745 | 53 ft | 11 kts | 25° |
| 2026-05-06 22:18 | 23.37658 | 113.30781 | 51 ft | 7 kts | 21° |
| 2026-05-06 22:18 | 23.37675 | 113.30780 | 53 ft | 1 kts | 317° |
| 2026-05-06 22:18 | 23.37669 | 113.30774 | 53 ft | 0 kts | 218° |
| 2026-05-06 22:18 | 23.37633 | 113.30759 | 49 ft | 0 kts | 192° |
| 2026-05-06 22:19 | 23.37632 | 113.30758 | 49 ft | 2 kts | 192° |
| 2026-05-06 22:19 | 23.37597 | 113.30750 | 53 ft | 9 kts | 193° |
| 2026-05-06 22:19 | 23.37543 | 113.30707 | 53 ft | 11 kts | 247° |
| 2026-05-06 22:19 | 23.37554 | 113.30627 | 54 ft | 11 kts | 285° |
| 2026-05-06 22:20 | 23.37585 | 113.30553 | 55 ft | 11 kts | 332° |
| 2026-05-06 22:20 | 23.37634 | 113.30557 | 55 ft | 0 kts | 16° |
| 2026-05-06 22:20 | 23.37700 | 113.30574 | 54 ft | 36 kts | 12° |
| 2026-05-06 22:21 | 23.38251 | 113.30723 | 52 ft | 122 kts | 14° |
| 2026-05-06 22:21 | 23.39271 | 113.30993 | 102 ft | 178 kts | 14° |
| 2026-05-06 22:21 | 23.40525 | 113.31330 | 763 ft | 193 kts | 15° |
| 2026-05-06 22:21 | 23.41849 | 113.31724 | 1462 ft | 204 kts | 18° |
| 2026-05-06 22:22 | 23.43283 | 113.32201 | 1834 ft | 227 kts | 19° |
| 2026-05-06 22:22 | 23.44875 | 113.32709 | 2250 ft | 250 kts | 12° |
| 2026-05-06 22:22 | 23.46673 | 113.32614 | 2744 ft | 269 kts | 340° |
| 2026-05-06 22:22 | 23.48263 | 113.31525 | 3546 ft | 273 kts | 317° |
| 2026-05-06 22:23 | 23.49716 | 113.30180 | 4489 ft | 275 kts | 318° |
| 2026-05-06 22:23 | 23.51207 | 113.28859 | 5419 ft | 277 kts | 319° |
| 2026-05-06 22:23 | 23.52723 | 113.27541 | 6332 ft | 279 kts | 319° |
| 2026-05-06 22:23 | 23.54247 | 113.26218 | 7171 ft | 282 kts | 319° |
| 2026-05-06 22:24 | 23.55787 | 113.24876 | 7987 ft | 284 kts | 318° |
| 2026-05-06 22:24 | 23.57335 | 113.23520 | 8827 ft | 286 kts | 318° |
| 2026-05-06 22:24 | 23.58891 | 113.22151 | 9639 ft | 288 kts | 317° |
| 2026-05-06 22:24 | 23.60456 | 113.20756 | 10260 ft | 296 kts | 315° |
| 2026-05-06 22:25 | 23.61660 | 113.18899 | 10429 ft | 311 kts | 287° |
| 2026-05-06 22:25 | 23.61862 | 113.16513 | 10569 ft | 328 kts | 259° |
| 2026-05-06 22:25 | 23.60963 | 113.14190 | 10876 ft | 341 kts | 237° |
| 2026-05-06 22:25 | 23.59481 | 113.12181 | 11391 ft | 347 kts | 227° |
| 2026-05-06 22:26 | 23.57664 | 113.10370 | 11979 ft | 353 kts | 219° |
| 2026-05-06 22:26 | 23.55576 | 113.08927 | 12548 ft | 359 kts | 207° |
| 2026-05-06 22:26 | 23.53229 | 113.08065 | 13116 ft | 366 kts | 193° |
| 2026-05-06 22:26 | 23.50650 | 113.07840 | 13387 ft | 382 kts | 182° |
| 2026-05-06 22:27 | 23.47939 | 113.07867 | 13522 ft | 397 kts | 181° |
| 2026-05-06 22:27 | 23.45127 | 113.07908 | 13652 ft | 411 kts | 181° |
| 2026-05-06 22:27 | 23.42231 | 113.07947 | 13933 ft | 420 kts | 181° |
| 2026-05-06 22:27 | 23.39288 | 113.07980 | 14332 ft | 424 kts | 181° |
| 2026-05-06 22:28 | 23.36326 | 113.08007 | 14660 ft | 426 kts | 181° |
| 2026-05-06 22:28 | 23.33359 | 113.08028 | 14755 ft | 427 kts | 182° |
| 2026-05-06 22:28 | 23.31392 | 113.08038 | 14777 ft | 427 kts | 182° |
| 2026-05-06 22:28 | 23.27418 | 113.08202 | 14774 ft | 429 kts | 174° |
| 2026-05-06 22:29 | 23.25432 | 113.08614 | 14775 ft | 431 kts | 168° |
| 2026-05-06 22:29 | 23.22700 | 113.09826 | 14773 ft | 436 kts | 151° |
| 2026-05-06 22:29 | 23.20306 | 113.11864 | 14809 ft | 439 kts | 135° |
| 2026-05-06 22:29 | 23.18391 | 113.14466 | 14797 ft | 443 kts | 127° |
| 2026-05-06 22:30 | 23.16427 | 113.17027 | 14765 ft | 439 kts | 139° |
| 2026-05-06 22:30 | 23.14117 | 113.19191 | 14776 ft | 439 kts | 141° |
| 2026-05-06 22:30 | 23.11791 | 113.21330 | 14776 ft | 439 kts | 142° |
| 2026-05-06 22:30 | 23.09444 | 113.23475 | 14776 ft | 439 kts | 142° |
| 2026-05-06 22:31 | 23.07110 | 113.25603 | 14775 ft | 439 kts | 142° |
| 2026-05-06 22:31 | 23.04773 | 113.27731 | 14769 ft | 439 kts | 142° |
| 2026-05-06 22:31 | 23.02431 | 113.29868 | 14771 ft | 439 kts | 142° |
| 2026-05-06 22:31 | 23.00091 | 113.32010 | 14769 ft | 439 kts | 142° |
| 2026-05-06 22:32 | 22.97762 | 113.34146 | 14769 ft | 439 kts | 142° |
| 2026-05-06 22:32 | 22.95432 | 113.36282 | 14767 ft | 439 kts | 142° |
| 2026-05-06 22:32 | 22.93095 | 113.38420 | 14763 ft | 439 kts | 142° |
| 2026-05-06 22:32 | 22.90762 | 113.40556 | 14762 ft | 439 kts | 141° |
| 2026-05-06 22:33 | 22.88424 | 113.42696 | 14767 ft | 439 kts | 142° |
| 2026-05-06 22:33 | 22.86087 | 113.44829 | 14767 ft | 439 kts | 142° |
| 2026-05-06 22:33 | 22.83746 | 113.46964 | 14772 ft | 439 kts | 142° |
| 2026-05-06 22:33 | 22.81411 | 113.49095 | 14770 ft | 439 kts | 142° |
| 2026-05-06 22:34 | 22.79072 | 113.51230 | 14771 ft | 439 kts | 142° |
| 2026-05-06 22:34 | 22.76734 | 113.53360 | 14771 ft | 439 kts | 142° |
| 2026-05-06 22:34 | 22.74394 | 113.55486 | 14769 ft | 439 kts | 142° |
| 2026-05-06 22:34 | 22.72085 | 113.57581 | 14769 ft | 439 kts | 142° |
| 2026-05-06 22:35 | 22.69716 | 113.59737 | 14770 ft | 439 kts | 142° |
| 2026-05-06 22:35 | 22.67412 | 113.61841 | 14773 ft | 439 kts | 142° |
| 2026-05-06 22:35 | 22.65087 | 113.63959 | 14542 ft | 436 kts | 142° |
| 2026-05-06 22:35 | 22.62816 | 113.66027 | 13994 ft | 415 kts | 142° |
| 2026-05-06 22:36 | 22.60665 | 113.67982 | 13411 ft | 393 kts | 142° |
| 2026-05-06 22:36 | 22.58618 | 113.69842 | 12822 ft | 374 kts | 140° |
| 2026-05-06 22:36 | 22.56680 | 113.71611 | 12227 ft | 358 kts | 142° |
| 2026-05-06 22:36 | 22.54806 | 113.73317 | 11639 ft | 346 kts | 142° |
| 2026-05-06 22:37 | 22.53000 | 113.74958 | 11066 ft | 334 kts | 143° |
| 2026-05-06 22:37 | 22.51248 | 113.76546 | 10501 ft | 326 kts | 143° |
| 2026-05-06 22:37 | 22.49530 | 113.78099 | 9949 ft | 320 kts | 142° |
| 2026-05-06 22:37 | 22.47830 | 113.79634 | 9340 ft | 315 kts | 143° |
| 2026-05-06 22:38 | 22.46160 | 113.81139 | 8745 ft | 310 kts | 142° |
| 2026-05-06 22:38 | 22.44528 | 113.82616 | 8141 ft | 301 kts | 141° |
| 2026-05-06 22:38 | 22.42942 | 113.84056 | 7547 ft | 293 kts | 142° |
| 2026-05-06 22:38 | 22.41392 | 113.85456 | 6975 ft | 289 kts | 142° |
| 2026-05-06 22:39 | 22.39856 | 113.86842 | 6421 ft | 287 kts | 142° |
| 2026-05-06 22:39 | 22.38332 | 113.88221 | 5821 ft | 284 kts | 141° |
| 2026-05-06 22:39 | 22.36840 | 113.89577 | 5233 ft | 277 kts | 141° |
| 2026-05-06 22:39 | 22.35366 | 113.90909 | 4656 ft | 275 kts | 141° |
| 2026-05-06 22:40 | 22.33896 | 113.92230 | 4062 ft | 273 kts | 141° |
| 2026-05-06 22:40 | 22.32447 | 113.93535 | 3472 ft | 270 kts | 141° |
| 2026-05-06 22:40 | 22.31010 | 113.94831 | 2885 ft | 267 kts | 140° |
| 2026-05-06 22:40 | 22.29636 | 113.96071 | 2543 ft | 242 kts | 139° |
| 2026-05-06 22:41 | 22.27300 | 113.98174 | 2483 ft | 198 kts | 139° |
| 2026-05-06 22:41 | 22.26299 | 113.99076 | 2483 ft | 174 kts | 139° |
| 2026-05-06 22:41 | 22.25437 | 113.99853 | 2479 ft | 153 kts | 138° |
| 2026-05-06 22:42 | 22.24712 | 114.00638 | 2503 ft | 143 kts | 123° |
| 2026-05-06 22:42 | 22.24308 | 114.01594 | 2496 ft | 142 kts | 106° |
| 2026-05-06 22:42 | 22.24197 | 114.02646 | 2490 ft | 142 kts | 90° |
| 2026-05-06 22:42 | 22.24394 | 114.03692 | 2481 ft | 145 kts | 72° |
| 2026-05-06 22:43 | 22.24892 | 114.04634 | 2483 ft | 146 kts | 54° |
| 2026-05-06 22:43 | 22.25663 | 114.05367 | 2476 ft | 150 kts | 35° |
| 2026-05-06 22:43 | 22.26563 | 114.05931 | 2485 ft | 150 kts | 33° |
| 2026-05-06 22:43 | 22.27461 | 114.06500 | 2485 ft | 149 kts | 34° |
| 2026-05-06 22:44 | 22.28361 | 114.07070 | 2476 ft | 150 kts | 34° |
| 2026-05-06 22:44 | 22.29260 | 114.07639 | 2485 ft | 149 kts | 33° |
| 2026-05-06 22:44 | 22.30156 | 114.08207 | 2451 ft | 150 kts | 32° |
| 2026-05-06 22:44 | 22.31045 | 114.08784 | 2303 ft | 148 kts | 34° |
| 2026-05-06 22:45 | 22.31931 | 114.09346 | 2108 ft | 146 kts | 33° |
| 2026-05-06 22:45 | 22.32803 | 114.09899 | 1945 ft | 145 kts | 34° |
| 2026-05-06 22:45 | 22.33572 | 114.10584 | 1768 ft | 143 kts | 56° |
| 2026-05-06 22:45 | 22.33931 | 114.11550 | 1654 ft | 139 kts | 84° |
| 2026-05-06 22:46 | 22.33966 | 114.12584 | 1586 ft | 138 kts | 90° |
| 2026-05-06 22:46 | 22.34012 | 114.13619 | 1424 ft | 138 kts | 87° |
| 2026-05-06 22:46 | 22.34047 | 114.14657 | 1229 ft | 138 kts | 90° |
| 2026-05-06 22:46 | 22.34026 | 114.15685 | 986 ft | 136 kts | 93° |
| 2026-05-06 22:47 | 22.33903 | 114.16695 | 750 ft | 134 kts | 106° |
| 2026-05-06 22:47 | 22.33607 | 114.17671 | 577 ft | 137 kts | 112° |
| 2026-05-06 22:47 | 22.33122 | 114.18542 | 374 ft | 139 kts | 127° |
| 2026-05-06 22:47 | 22.32498 | 114.19281 | 144 ft | 139 kts | 134° |
| 2026-05-06 22:48 | 22.31848 | 114.20017 | 39 ft | 126 kts | 134° |
| 2026-05-06 22:48 | 22.31431 | 114.20484 | 36 ft | 45 kts | 134° |
| 2026-05-06 22:48 | 22.31361 | 114.20562 | 36 ft | 18 kts | 133° |
| 2026-05-06 22:48 | 22.31095 | 114.20931 | 35 ft | 103 kts | 125° |
| 2026-05-06 22:49 | 22.30868 | 114.21270 | 36 ft | 23 kts | 126° |
| 2026-05-06 22:49 | 22.30919 | 114.21320 | 36 ft | 16 kts | 268° |
| 2026-05-06 22:49 | 22.30916 | 114.21311 | 36 ft | 0 kts | 253° |
| 2026-05-06 22:50 | 22.30916 | 114.21309 | 36 ft | 3 kts | 253° |
| 2026-05-06 22:51 | 22.30904 | 114.21270 | 35 ft | 0 kts | 253° |
| 2026-05-06 22:51 | 22.30907 | 114.21252 | 36 ft | 1 kts | 277° |
| 2026-05-06 22:51 | 22.30957 | 114.21171 | 34 ft | 27 kts | 306° |
| 2026-05-06 22:51 | 22.31085 | 114.21018 | 36 ft | 30 kts | 313° |
| 2026-05-06 22:52 | 22.31228 | 114.20851 | 36 ft | 30 kts | 316° |
| 2026-05-06 22:52 | 22.31385 | 114.20686 | 36 ft | 32 kts | 315° |
| 2026-05-06 22:52 | 22.31445 | 114.20618 | 36 ft | 2 kts | 309° |
| 2026-05-06 22:52 | 22.31472 | 114.20594 | 36 ft | 7 kts | 339° |
| 2026-05-06 22:53 | 22.31517 | 114.20603 | 38 ft | 8 kts | 29° |
| 2026-05-06 22:53 | 22.31570 | 114.20653 | 42 ft | 10 kts | 40° |
| 2026-05-06 22:53 | 22.31632 | 114.20715 | 36 ft | 16 kts | 42° |
| 2026-05-06 22:53 | 22.31703 | 114.20722 | 36 ft | 2 kts | 340° |
| 2026-05-06 22:54 | 22.31713 | 114.20718 | 36 ft | 0 kts | 339° |